createdAt,value
2022-09-12T00:02:02.556Z,17.40
2022-09-12T00:05:48.092Z,17.40
2022-09-12T00:09:29.975Z,17.40
2022-09-12T00:13:12.455Z,17.30
2022-09-12T00:16:58.767Z,17.30
2022-09-12T00:20:47.519Z,17.20
2022-09-12T00:24:29.330Z,17.30
2022-09-12T00:28:12.261Z,17.20
2022-09-12T00:31:54.142Z,17.30
2022-09-12T00:35:42.069Z,17.20
2022-09-12T00:39:23.890Z,17.20
2022-09-12T00:43:06.262Z,17.20
2022-09-12T00:47:14.767Z,17.30
2022-09-12T00:50:56.740Z,17.20
2022-09-12T00:54:50.003Z,17.20
2022-09-12T00:58:45.912Z,17.20
2022-09-12T01:02:28.614Z,17.20
2022-09-12T01:06:28.187Z,17.20
2022-09-12T01:10:11.407Z,17.20
2022-09-12T01:13:54.657Z,17.10
2022-09-12T01:17:55.123Z,17.10
2022-09-12T01:21:59.227Z,17.10
2022-09-12T01:26:01.279Z,17.10
2022-09-12T01:30:01.772Z,17.20
2022-09-12T01:34:11.779Z,17.10
2022-09-12T01:38:29.659Z,17.10
2022-09-12T01:42:27.760Z,17.10
2022-09-12T01:46:29.650Z,17.10
2022-09-12T01:50:35.792Z,17.10
2022-09-12T01:54:27.249Z,17.10
2022-09-12T01:58:14.945Z,17.10
2022-09-12T02:02:03.378Z,17.00
2022-09-12T02:06:01.347Z,17.00
2022-09-12T02:09:46.476Z,17.00
2022-09-12T02:13:31.390Z,17.00
2022-09-12T02:17:23.338Z,17.00
2022-09-12T02:21:06.582Z,17.00
2022-09-12T02:24:54.226Z,17.00
2022-09-12T02:28:41.482Z,17.00
2022-09-12T02:32:46.689Z,17.00
2022-09-12T02:36:31.781Z,17.00
2022-09-12T02:40:14.531Z,17.00
2022-09-12T02:43:56.694Z,17.00
2022-09-12T02:47:50.731Z,17.00
2022-09-12T02:51:33.126Z,17.00
2022-09-12T02:55:15.920Z,17.00
2022-09-12T02:59:02.838Z,17.00
2022-09-12T03:02:58.511Z,17.00
2022-09-12T03:06:55.465Z,17.00
2022-09-12T03:11:16.560Z,16.90
2022-09-12T03:15:19.558Z,16.90
2022-09-12T03:19:32.079Z,16.80
2022-09-12T03:23:39.312Z,16.80
2022-09-12T03:27:37.140Z,16.90
2022-09-12T03:31:20.036Z,16.90
2022-09-12T03:35:02.011Z,16.90
2022-09-12T03:38:44.022Z,16.90
2022-09-12T03:42:25.840Z,16.90
2022-09-12T03:46:07.715Z,16.90
2022-09-12T03:49:49.508Z,16.90
2022-09-12T03:53:31.743Z,17.00
2022-09-12T03:57:13.821Z,17.00
2022-09-12T04:00:55.661Z,17.00
2022-09-12T04:04:37.484Z,17.00
2022-09-12T04:08:19.485Z,17.00
2022-09-12T04:12:01.433Z,17.00
2022-09-12T04:15:43.237Z,17.00
2022-09-12T04:19:26.262Z,17.00
2022-09-12T04:23:08.266Z,17.00
2022-09-12T04:26:50.363Z,17.00
2022-09-12T04:30:34.575Z,17.00
2022-09-12T04:34:16.549Z,17.00
2022-09-12T04:37:58.372Z,17.00
2022-09-12T04:41:41.979Z,17.00
2022-09-12T04:45:23.829Z,17.00
2022-09-12T04:49:06.707Z,17.00
2022-09-12T04:52:53.383Z,17.00
2022-09-12T04:56:39.626Z,17.10
2022-09-12T05:00:21.602Z,17.10
2022-09-12T05:04:04.250Z,17.10
2022-09-12T05:07:46.117Z,17.00
2022-09-12T05:11:53.107Z,17.00
2022-09-12T05:15:32.668Z,17.00
2022-09-12T05:19:14.577Z,17.00
2022-09-12T05:22:56.465Z,17.00
2022-09-12T05:26:38.660Z,16.90
2022-09-12T05:30:20.576Z,16.90
2022-09-12T05:34:07.070Z,16.90
2022-09-12T05:37:48.887Z,17.00
2022-09-12T05:41:33.571Z,16.90
2022-09-12T05:45:15.980Z,16.90
2022-09-12T05:49:02.638Z,16.90
2022-09-12T05:52:44.490Z,16.90
2022-09-12T05:56:28.464Z,16.90
2022-09-12T06:00:10.963Z,16.90
2022-09-12T06:03:55.220Z,16.90
2022-09-12T06:07:37.172Z,16.90
2022-09-12T06:11:21.616Z,17.00
2022-09-12T06:15:03.973Z,17.00
2022-09-12T06:18:50.799Z,17.10
2022-09-12T06:22:32.663Z,17.10
2022-09-12T06:26:16.709Z,17.20
2022-09-12T06:29:59.603Z,17.30
2022-09-12T06:33:45.442Z,17.40
2022-09-12T06:37:27.320Z,17.60
2022-09-12T06:41:12.400Z,17.70
2022-09-12T06:44:54.344Z,17.80
2022-09-12T06:48:41.562Z,17.90
2022-09-12T06:52:23.885Z,18.00
2022-09-12T06:56:09.752Z,18.00
2022-09-12T06:59:51.800Z,18.10
2022-09-12T07:03:35.060Z,18.20
2022-09-12T07:07:16.828Z,18.40
2022-09-12T07:11:01.297Z,18.50
2022-09-12T07:14:43.278Z,18.50
2022-09-12T07:18:25.221Z,18.60
2022-09-12T07:22:07.335Z,18.70
2022-09-12T07:26:00.045Z,18.80
2022-09-12T07:29:41.917Z,18.80
2022-09-12T07:33:27.288Z,18.90
2022-09-12T07:37:09.347Z,18.90
2022-09-12T07:40:51.152Z,19.00
2022-09-12T07:44:33.294Z,19.00
2022-09-12T07:48:15.103Z,19.10
2022-09-12T07:51:57.002Z,19.30
2022-09-12T07:55:38.903Z,19.40
2022-09-12T07:59:41.583Z,19.50
2022-09-12T08:03:23.425Z,19.50
2022-09-12T08:07:06.691Z,19.70
2022-09-12T08:10:48.607Z,19.90
2022-09-12T08:14:31.678Z,20.10
2022-09-12T08:18:13.930Z,20.30
2022-09-12T08:21:55.864Z,20.50
2022-09-12T08:25:38.129Z,20.60
2022-09-12T08:29:36.261Z,20.90
2022-09-12T08:33:22.199Z,21.20
2022-09-12T08:37:08.008Z,21.70
2022-09-12T08:41:25.233Z,22.10
2022-09-12T08:45:22.855Z,22.50
2022-09-12T08:49:17.724Z,23.30
2022-09-12T08:53:20.433Z,24.10
2022-09-12T08:57:09.164Z,24.40
2022-09-12T09:01:10.108Z,24.50
2022-09-12T09:05:06.355Z,24.50
2022-09-12T09:08:51.255Z,24.40
2022-09-12T09:12:49.700Z,24.50
2022-09-12T09:16:44.392Z,25.10
2022-09-12T09:20:37.283Z,25.70
2022-09-12T09:24:26.740Z,26.60
2022-09-12T09:28:19.558Z,27.50
2022-09-12T09:32:13.471Z,27.60
2022-09-12T09:36:29.460Z,27.40
2022-09-12T09:40:35.624Z,27.20
2022-09-12T09:44:22.563Z,26.90
2022-09-12T09:48:20.939Z,26.80
2022-09-12T09:52:06.724Z,27.00
2022-09-12T09:55:51.440Z,27.70
2022-09-12T09:59:34.741Z,28.60
2022-09-12T10:03:50.822Z,28.60
2022-09-12T10:07:33.458Z,28.60
2022-09-12T10:11:48.878Z,29.10
2022-09-12T10:15:31.970Z,30.20
2022-09-12T10:19:42.451Z,31.10
2022-09-12T10:23:42.510Z,31.90
2022-09-12T10:27:34.186Z,32.40
2022-09-12T10:31:29.208Z,32.90
2022-09-12T10:35:55.261Z,33.30
2022-09-12T10:39:38.700Z,34.00
2022-09-12T10:43:38.556Z,34.70
2022-09-12T10:47:24.879Z,35.30
2022-09-12T10:51:25.765Z,35.60
2022-09-12T10:55:15.924Z,35.80
2022-09-12T10:59:06.623Z,36.30
2022-09-12T11:02:57.733Z,36.50
2022-09-12T11:06:58.948Z,36.30
2022-09-12T11:10:46.813Z,35.60
2022-09-12T11:14:36.980Z,34.90
2022-09-12T11:19:14.536Z,34.40
2022-09-12T11:23:28.057Z,33.80
2022-09-12T11:27:40.848Z,33.50
2022-09-12T11:31:39.057Z,33.20
2022-09-12T11:35:32.209Z,32.70
2022-09-12T11:39:17.176Z,32.20
2022-09-12T11:43:07.226Z,32.10
2022-09-12T11:46:52.137Z,32.10
2022-09-12T11:50:34.328Z,32.10
2022-09-12T11:54:38.384Z,31.40
2022-09-12T11:58:29.603Z,30.80
2022-09-12T12:02:17.530Z,30.50
2022-09-12T12:06:06.014Z,30.60
2022-09-12T12:09:52.299Z,31.10
2022-09-12T12:13:53.038Z,31.40
2022-09-12T12:17:37.584Z,31.30
2022-09-12T12:21:33.107Z,31.00
2022-09-12T12:25:19.537Z,30.60
2022-09-12T12:29:03.739Z,30.60
2022-09-12T12:32:45.603Z,30.50
2022-09-12T12:36:39.357Z,30.30
2022-09-12T12:40:25.498Z,29.90
2022-09-12T12:44:59.653Z,29.50
2022-09-12T12:49:30.568Z,29.20
2022-09-12T12:53:28.317Z,29.00
2022-09-12T12:57:13.210Z,28.70
2022-09-12T13:01:10.281Z,28.40
2022-09-12T13:04:54.197Z,28.20
2022-09-12T13:08:41.214Z,28.00
2022-09-12T13:12:30.659Z,27.90
2022-09-12T13:16:30.551Z,27.80
2022-09-12T13:20:30.533Z,27.70
2022-09-12T13:24:17.511Z,27.60
2022-09-12T13:28:11.574Z,27.50
2022-09-12T13:32:00.088Z,27.60
2022-09-12T13:36:19.070Z,28.00
2022-09-12T13:40:34.126Z,28.20
2022-09-12T13:44:19.696Z,28.30
2022-09-12T13:48:03.338Z,28.40
2022-09-12T13:51:45.275Z,28.40
2022-09-12T13:55:33.339Z,28.60
2022-09-12T13:59:16.307Z,28.80
2022-09-12T14:03:18.391Z,28.90
2022-09-12T14:07:03.536Z,29.10
2022-09-12T14:10:50.215Z,29.30
2022-09-12T14:14:36.087Z,29.50
2022-09-12T14:18:37.334Z,29.40
2022-09-12T14:22:19.651Z,29.30
2022-09-12T14:26:05.429Z,29.10
2022-09-12T14:29:52.413Z,29.00
2022-09-12T14:33:48.086Z,28.80
2022-09-12T14:37:30.004Z,28.60
2022-09-12T14:41:21.615Z,28.60
2022-09-12T14:45:14.004Z,28.50
2022-09-12T14:49:01.194Z,28.50
2022-09-12T14:52:43.999Z,28.40
2022-09-12T14:56:44.682Z,28.40
2022-09-12T15:00:26.744Z,28.40
2022-09-12T15:04:08.615Z,28.30
2022-09-12T15:07:59.788Z,28.10
2022-09-12T15:11:41.826Z,28.00
2022-09-12T15:15:23.595Z,27.90
2022-09-12T15:19:05.374Z,27.80
2022-09-12T15:22:47.260Z,27.80
2022-09-12T15:26:30.705Z,27.80
2022-09-12T15:30:16.370Z,27.70
2022-09-12T15:34:00.138Z,27.60
2022-09-12T15:37:42.066Z,27.50
2022-09-12T15:41:29.903Z,27.40
2022-09-12T15:45:26.056Z,27.30
2022-09-12T15:49:07.916Z,27.10
2022-09-12T15:52:51.442Z,27.00
2022-09-12T15:56:33.387Z,26.90
2022-09-12T16:00:17.794Z,26.80
2022-09-12T16:04:02.039Z,26.60
2022-09-12T16:07:45.282Z,26.50
2022-09-12T16:11:29.068Z,26.40
2022-09-12T16:15:13.988Z,26.40
2022-09-12T16:18:58.530Z,26.40
2022-09-12T16:22:40.462Z,26.30
2022-09-12T16:26:22.224Z,26.20
2022-09-12T16:30:06.646Z,26.10
2022-09-12T16:33:51.560Z,26.10
2022-09-12T16:37:34.688Z,26.00
2022-09-12T16:41:18.643Z,25.90
2022-09-12T16:45:00.524Z,25.80
2022-09-12T16:48:49.572Z,25.70
2022-09-12T16:52:36.694Z,25.70
2022-09-12T16:56:18.930Z,25.60
2022-09-12T17:00:00.882Z,25.60
2022-09-12T17:03:43.336Z,25.50
2022-09-12T17:07:25.300Z,25.50
2022-09-12T17:11:13.050Z,25.50
2022-09-12T17:14:54.813Z,25.50
2022-09-12T17:18:37.046Z,25.40
2022-09-12T17:22:19.692Z,25.30
2022-09-12T17:26:03.852Z,25.20
2022-09-12T17:29:47.010Z,25.10
2022-09-12T17:33:29.293Z,25.10
2022-09-12T17:37:11.467Z,25.00
2022-09-12T17:40:59.905Z,24.90
2022-09-12T17:44:42.670Z,24.80
2022-09-12T17:48:24.810Z,24.70
2022-09-12T17:52:06.701Z,24.60
2022-09-12T17:55:51.520Z,24.50
2022-09-12T17:59:36.620Z,24.40
2022-09-12T18:03:27.039Z,24.40
2022-09-12T18:07:09.273Z,24.30
2022-09-12T18:10:53.565Z,24.20
2022-09-12T18:14:35.480Z,24.10
2022-09-12T18:18:17.864Z,24.10
2022-09-12T18:21:59.963Z,24.00
2022-09-12T18:25:42.016Z,24.00
2022-09-12T18:29:30.487Z,23.90
2022-09-12T18:33:13.435Z,23.80
2022-09-12T18:36:55.345Z,23.80
2022-09-12T18:40:37.387Z,23.70
2022-09-12T18:44:19.291Z,23.60
2022-09-12T18:48:06.273Z,23.60
2022-09-12T18:51:48.210Z,23.50
2022-09-12T18:55:32.080Z,23.50
2022-09-12T18:59:15.048Z,23.30
2022-09-12T19:02:56.998Z,23.30
2022-09-12T19:06:41.788Z,23.20
2022-09-12T19:10:23.753Z,23.20
2022-09-12T19:14:06.192Z,23.10
2022-09-12T19:17:48.104Z,23.10
2022-09-12T19:21:31.314Z,23.00
2022-09-12T19:25:13.423Z,23.00
2022-09-12T19:28:56.156Z,22.90
2022-09-12T19:32:38.020Z,22.90
2022-09-12T19:40:23.882Z,22.80
2022-09-12T19:44:05.941Z,22.80
2022-09-12T19:47:47.998Z,22.70
2022-09-12T19:51:29.816Z,22.60
2022-09-12T19:55:11.848Z,22.60
2022-09-12T19:58:56.615Z,22.50
2022-09-12T20:02:38.713Z,22.50
2022-09-12T20:06:20.916Z,22.50
2022-09-12T20:10:02.823Z,22.40
2022-09-12T20:13:45.650Z,22.40
2022-09-12T20:17:27.718Z,22.40
2022-09-12T20:21:14.154Z,22.40
2022-09-12T20:24:56.167Z,22.30
2022-09-12T20:28:39.288Z,22.30
2022-09-12T20:32:21.366Z,22.30
2022-09-12T20:36:15.619Z,22.20
2022-09-12T20:39:57.548Z,22.20
2022-09-12T20:43:40.117Z,22.10
2022-09-12T20:47:25.297Z,22.10
2022-09-12T20:51:07.578Z,22.10
2022-09-12T20:54:49.437Z,22.10
2022-09-12T20:58:31.487Z,22.10
2022-09-12T21:02:15.331Z,22.00
2022-09-12T21:05:57.392Z,22.00
2022-09-12T21:09:39.795Z,22.00
2022-09-12T21:13:21.589Z,22.00
2022-09-12T21:17:05.344Z,21.90
2022-09-12T21:20:53.016Z,21.90
2022-09-12T21:24:34.967Z,21.80
2022-09-12T21:28:17.875Z,21.80
2022-09-12T21:31:59.796Z,21.80
2022-09-12T21:35:41.732Z,21.70
2022-09-12T21:39:23.726Z,21.70
2022-09-12T21:43:09.197Z,21.60
2022-09-12T21:46:53.889Z,21.60
2022-09-12T21:50:35.748Z,21.60
2022-09-12T21:54:19.009Z,21.60
2022-09-12T21:58:00.911Z,21.50
2022-09-12T22:01:45.866Z,21.50
2022-09-12T22:05:32.605Z,21.40
2022-09-12T22:09:17.028Z,21.40
2022-09-12T22:12:58.942Z,21.40
2022-09-12T22:16:41.027Z,21.30
2022-09-12T22:20:23.051Z,21.30
2022-09-12T22:24:23.440Z,21.20
2022-09-12T22:28:05.484Z,21.20
2022-09-12T22:31:47.946Z,21.10
2022-09-12T22:35:29.932Z,21.10
2022-09-12T22:39:12.813Z,21.10
2022-09-12T22:42:55.044Z,21.00
2022-09-12T22:46:38.019Z,21.00
2022-09-12T22:50:20.025Z,21.00
2022-09-12T22:54:02.744Z,21.00
2022-09-12T22:57:44.829Z,21.00
2022-09-12T23:01:27.311Z,21.00
2022-09-12T23:05:09.415Z,20.90
2022-09-12T23:08:51.310Z,20.90
2022-09-12T23:12:33.311Z,20.80
2022-09-12T23:16:24.434Z,20.70
2022-09-12T23:20:06.888Z,20.80
2022-09-12T23:23:49.446Z,20.70
2022-09-12T23:27:31.315Z,20.60
2022-09-12T23:31:13.179Z,20.50
2022-09-12T23:34:54.984Z,20.50
2022-09-12T23:38:37.007Z,20.50
2022-09-12T23:42:19.021Z,20.40
2022-09-12T23:46:01.847Z,20.30
2022-09-12T23:49:45.615Z,20.30
2022-09-12T23:53:27.687Z,20.20
2022-09-12T23:57:09.540Z,20.10
